Overview Statistics Trail Chart Weather Telemetry Raw packets
 

This is the latest recevied weather packets stored in our database for station/object VK2KGV-15. If no packets are shown the sender has not sent any weather packets the latest 10 day(s).

<< 1 2 3 4 5 >>
Time Temp. Humidity Pressure Rain* Wind** Luminosity Snow
1788580592 28.89° C 24% 1015 hPa 0 mm - - -
1788579989 28.89° C 24% 1015 hPa 0 mm - - -
1788579386 30° C 22% 1015 hPa 0 mm - - -
1788577576 30° C 22% 1015.3 hPa 0 mm - - -
1788576370 29.44° C 23% 1015.7 hPa 0 mm - - -
1788574561 28.89° C 26% 1016.5 hPa 0 mm - - -
1788573957 28.89° C 25% 1016.7 hPa 0 mm - - -
1788571545 28.89° C 25% 1017.3 hPa 0 mm - - -
1788570339 28.33° C 25% 1017.7 hPa 0 mm - - -
1788569133 28.33° C 26% 1018.1 hPa 0 mm - - -
1788567926 27.22° C 26% 1018.4 hPa 0 mm - - -
1788567323 27.22° C 26% 1018.4 hPa 0 mm - - -
1788566720 26.67° C 28% 1018.6 hPa 0 mm - - -
1788565514 26.11° C 26% 1018.7 hPa 0 mm - - -
1788563101 23.33° C 36% 1019.8 hPa 0 mm - - -
1788560689 18.33° C 54% 1020.5 hPa 0 mm - - -
1788559483 15.56° C 63% 1020.8 hPa 0 mm - - -
1788553452 4.44° C 86% 1021.7 hPa 0 mm - - -
1788552245 4.44° C 86% 1021.7 hPa 0 mm - - -
1788551039 4.44° C 85% 1021.6 hPa 0 mm - - -
1788548627 5° C 83% 1021.1 hPa 0 mm - - -
1788547420 5° C 83% 1021 hPa 0 mm - - -
1788546214 5° C 83% 1021 hPa 0 mm - - -
1788545008 5° C 82% 1021 hPa 0 mm - - -
1788537771 6.11° C 78% 1021.6 hPa 0 mm - - -

* Rain since midnight (hover to see other rain measurements)
** Current wind speed in m/s (hover to see current wind gust speed)